sensor_id;sensor_type;location;lat;lon;timestamp;temperature;humidity
56308;DHT22;42217;50.422;7.210;2023-04-24T00:00:08;9.20;99.90
56308;DHT22;42217;50.422;7.210;2023-04-24T00:02:40;9.10;99.90
56308;DHT22;42217;50.422;7.210;2023-04-24T00:05:07;9.00;99.90
56308;DHT22;42217;50.422;7.210;2023-04-24T00:07:33;9.00;99.90
56308;DHT22;42217;50.422;7.210;2023-04-24T00:10:00;9.00;99.90
56308;DHT22;42217;50.422;7.210;2023-04-24T00:12:26;9.10;99.90
56308;DHT22;42217;50.422;7.210;2023-04-24T00:14:52;9.10;99.90
56308;DHT22;42217;50.422;7.210;2023-04-24T00:17:18;9.20;99.90
56308;DHT22;42217;50.422;7.210;2023-04-24T00:19:47;9.20;99.90
56308;DHT22;42217;50.422;7.210;2023-04-24T00:22:13;9.20;99.90
56308;DHT22;42217;50.422;7.210;2023-04-24T00:24:40;9.10;99.90
56308;DHT22;42217;50.422;7.210;2023-04-24T00:27:05;9.20;99.90
56308;DHT22;42217;50.422;7.210;2023-04-24T00:29:31;9.10;99.90
56308;DHT22;42217;50.422;7.210;2023-04-24T00:31:57;9.10;99.90
56308;DHT22;42217;50.422;7.210;2023-04-24T00:34:23;9.10;99.90
56308;DHT22;42217;50.422;7.210;2023-04-24T00:36:48;9.00;99.90
56308;DHT22;42217;50.422;7.210;2023-04-24T00:39:18;9.00;99.90
56308;DHT22;42217;50.422;7.210;2023-04-24T00:41:44;8.90;99.90
56308;DHT22;42217;50.422;7.210;2023-04-24T00:44:11;8.80;99.90
56308;DHT22;42217;50.422;7.210;2023-04-24T00:46:37;8.80;99.90
56308;DHT22;42217;50.422;7.210;2023-04-24T00:49:03;8.90;99.90
56308;DHT22;42217;50.422;7.210;2023-04-24T00:51:29;9.00;99.90
56308;DHT22;42217;50.422;7.210;2023-04-24T00:53:56;8.90;99.90
56308;DHT22;42217;50.422;7.210;2023-04-24T00:56:22;8.60;99.90
56308;DHT22;42217;50.422;7.210;2023-04-24T00:58:49;8.40;99.90
56308;DHT22;42217;50.422;7.210;2023-04-24T01:01:15;8.30;99.90
56308;DHT22;42217;50.422;7.210;2023-04-24T01:03:41;8.20;99.90
56308;DHT22;42217;50.422;7.210;2023-04-24T01:06:07;8.30;99.90
56308;DHT22;42217;50.422;7.210;2023-04-24T01:08:34;8.50;99.90
56308;DHT22;42217;50.422;7.210;2023-04-24T01:11:03;8.50;99.90
56308;DHT22;42217;50.422;7.210;2023-04-24T01:13:31;8.50;99.90
56308;DHT22;42217;50.422;7.210;2023-04-24T01:15:57;8.60;99.90
56308;DHT22;42217;50.422;7.210;2023-04-24T01:18:23;8.60;99.90
56308;DHT22;42217;50.422;7.210;2023-04-24T01:20:51;8.70;99.90
56308;DHT22;42217;50.422;7.210;2023-04-24T01:23:18;8.70;99.90
56308;DHT22;42217;50.422;7.210;2023-04-24T01:25:44;8.80;99.90
56308;DHT22;42217;50.422;7.210;2023-04-24T01:28:11;8.80;99.90
56308;DHT22;42217;50.422;7.210;2023-04-24T01:30:36;8.90;99.90
56308;DHT22;42217;50.422;7.210;2023-04-24T01:33:02;8.80;99.90
56308;DHT22;42217;50.422;7.210;2023-04-24T01:35:28;9.00;99.90
56308;DHT22;42217;50.422;7.210;2023-04-24T01:37:54;9.00;99.90
56308;DHT22;42217;50.422;7.210;2023-04-24T01:40:20;8.90;99.90
56308;DHT22;42217;50.422;7.210;2023-04-24T01:42:46;8.90;99.90
56308;DHT22;42217;50.422;7.210;2023-04-24T01:45:12;9.00;99.90
56308;DHT22;42217;50.422;7.210;2023-04-24T01:47:40;9.00;99.90
56308;DHT22;42217;50.422;7.210;2023-04-24T01:50:07;9.00;99.90
56308;DHT22;42217;50.422;7.210;2023-04-24T01:52:33;9.20;99.90
56308;DHT22;42217;50.422;7.210;2023-04-24T01:55:04;9.20;99.90
56308;DHT22;42217;50.422;7.210;2023-04-24T01:57:31;9.20;99.90
56308;DHT22;42217;50.422;7.210;2023-04-24T01:59:57;9.10;99.90
56308;DHT22;42217;50.422;7.210;2023-04-24T02:02:23;9.10;99.90
56308;DHT22;42217;50.422;7.210;2023-04-24T02:04:50;9.10;99.90
56308;DHT22;42217;50.422;7.210;2023-04-24T02:07:15;9.00;99.90
56308;DHT22;42217;50.422;7.210;2023-04-24T02:09:41;8.90;99.90
56308;DHT22;42217;50.422;7.210;2023-04-24T02:12:07;8.80;99.90
56308;DHT22;42217;50.422;7.210;2023-04-24T02:14:33;8.60;99.90
56308;DHT22;42217;50.422;7.210;2023-04-24T02:16:58;8.50;99.90
56308;DHT22;42217;50.422;7.210;2023-04-24T02:19:24;8.40;99.90
56308;DHT22;42217;50.422;7.210;2023-04-24T02:21:50;8.40;99.90
56308;DHT22;42217;50.422;7.210;2023-04-24T02:24:16;8.30;99.90
56308;DHT22;42217;50.422;7.210;2023-04-24T02:26:41;8.20;99.90
56308;DHT22;42217;50.422;7.210;2023-04-24T02:29:07;8.00;99.90
56308;DHT22;42217;50.422;7.210;2023-04-24T02:31:33;8.00;99.90
56308;DHT22;42217;50.422;7.210;2023-04-24T02:33:59;7.90;99.90
56308;DHT22;42217;50.422;7.210;2023-04-24T02:36:25;7.60;99.90
56308;DHT22;42217;50.422;7.210;2023-04-24T02:38:50;7.60;99.90
56308;DHT22;42217;50.422;7.210;2023-04-24T02:41:16;7.60;99.90
56308;DHT22;42217;50.422;7.210;2023-04-24T02:43:42;7.50;99.90
56308;DHT22;42217;50.422;7.210;2023-04-24T02:46:07;7.40;99.90
56308;DHT22;42217;50.422;7.210;2023-04-24T02:48:33;7.30;99.90
56308;DHT22;42217;50.422;7.210;2023-04-24T02:50:59;7.10;99.90
56308;DHT22;42217;50.422;7.210;2023-04-24T02:53:25;7.00;99.90
56308;DHT22;42217;50.422;7.210;2023-04-24T02:55:50;6.90;99.90
56308;DHT22;42217;50.422;7.210;2023-04-24T02:58:16;6.90;99.90
56308;DHT22;42217;50.422;7.210;2023-04-24T03:00:42;6.90;99.90
56308;DHT22;42217;50.422;7.210;2023-04-24T03:03:09;7.00;99.90
56308;DHT22;42217;50.422;7.210;2023-04-24T03:05:34;7.10;99.90
56308;DHT22;42217;50.422;7.210;2023-04-24T03:08:00;7.10;99.90
56308;DHT22;42217;50.422;7.210;2023-04-24T03:10:26;7.10;99.90
56308;DHT22;42217;50.422;7.210;2023-04-24T03:12:52;7.00;99.90
56308;DHT22;42217;50.422;7.210;2023-04-24T03:15:18;7.00;99.90
56308;DHT22;42217;50.422;7.210;2023-04-24T03:17:43;7.10;99.90
56308;DHT22;42217;50.422;7.210;2023-04-24T03:20:09;7.00;99.90
56308;DHT22;42217;50.422;7.210;2023-04-24T03:22:35;7.00;99.90
56308;DHT22;42217;50.422;7.210;2023-04-24T03:25:01;7.00;99.90
56308;DHT22;42217;50.422;7.210;2023-04-24T03:27:27;7.10;99.90
56308;DHT22;42217;50.422;7.210;2023-04-24T03:29:52;7.00;99.90
56308;DHT22;42217;50.422;7.210;2023-04-24T03:32:21;7.00;99.90
56308;DHT22;42217;50.422;7.210;2023-04-24T03:34:48;7.00;99.90
56308;DHT22;42217;50.422;7.210;2023-04-24T03:37:13;7.00;99.90
56308;DHT22;42217;50.422;7.210;2023-04-24T03:39:39;6.90;99.90
56308;DHT22;42217;50.422;7.210;2023-04-24T03:42:05;6.80;99.90
56308;DHT22;42217;50.422;7.210;2023-04-24T03:44:30;6.60;99.90
56308;DHT22;42217;50.422;7.210;2023-04-24T03:46:58;6.50;99.90
56308;DHT22;42217;50.422;7.210;2023-04-24T03:49:23;6.40;99.90
56308;DHT22;42217;50.422;7.210;2023-04-24T03:51:49;6.50;99.90
56308;DHT22;42217;50.422;7.210;2023-04-24T03:54:15;6.50;99.90
56308;DHT22;42217;50.422;7.210;2023-04-24T03:56:40;6.30;99.90
56308;DHT22;42217;50.422;7.210;2023-04-24T03:59:06;6.20;99.90
56308;DHT22;42217;50.422;7.210;2023-04-24T04:01:32;6.10;99.90
56308;DHT22;42217;50.422;7.210;2023-04-24T04:03:57;6.20;99.90
56308;DHT22;42217;50.422;7.210;2023-04-24T04:06:23;6.00;99.90
56308;DHT22;42217;50.422;7.210;2023-04-24T04:08:48;6.00;99.90
56308;DHT22;42217;50.422;7.210;2023-04-24T04:11:14;6.00;99.90
56308;DHT22;42217;50.422;7.210;2023-04-24T04:13:40;5.80;99.90
56308;DHT22;42217;50.422;7.210;2023-04-24T04:16:06;5.70;99.90
56308;DHT22;42217;50.422;7.210;2023-04-24T04:18:31;5.70;99.90
56308;DHT22;42217;50.422;7.210;2023-04-24T04:20:57;5.70;99.90
56308;DHT22;42217;50.422;7.210;2023-04-24T04:23:23;5.70;99.90
56308;DHT22;42217;50.422;7.210;2023-04-24T04:25:49;5.80;99.90
56308;DHT22;42217;50.422;7.210;2023-04-24T04:28:15;5.80;99.90
56308;DHT22;42217;50.422;7.210;2023-04-24T04:30:41;5.80;99.90
56308;DHT22;42217;50.422;7.210;2023-04-24T04:33:06;5.80;99.90
56308;DHT22;42217;50.422;7.210;2023-04-24T04:35:33;5.80;99.90
56308;DHT22;42217;50.422;7.210;2023-04-24T04:37:59;6.00;99.90
56308;DHT22;42217;50.422;7.210;2023-04-24T04:40:25;6.00;99.90
56308;DHT22;42217;50.422;7.210;2023-04-24T04:42:52;5.90;99.90
56308;DHT22;42217;50.422;7.210;2023-04-24T04:45:18;5.80;99.90
56308;DHT22;42217;50.422;7.210;2023-04-24T04:47:46;5.90;99.90
56308;DHT22;42217;50.422;7.210;2023-04-24T04:50:11;6.10;99.90
56308;DHT22;42217;50.422;7.210;2023-04-24T04:52:37;6.10;99.90
56308;DHT22;42217;50.422;7.210;2023-04-24T04:55:03;6.00;99.90
56308;DHT22;42217;50.422;7.210;2023-04-24T04:57:29;6.00;99.90
56308;DHT22;42217;50.422;7.210;2023-04-24T04:59:55;6.20;99.90
56308;DHT22;42217;50.422;7.210;2023-04-24T05:02:21;6.30;99.90
56308;DHT22;42217;50.422;7.210;2023-04-24T05:04:46;6.20;99.90
56308;DHT22;42217;50.422;7.210;2023-04-24T05:07:12;6.30;99.90
56308;DHT22;42217;50.422;7.210;2023-04-24T05:09:38;6.30;99.90
56308;DHT22;42217;50.422;7.210;2023-04-24T05:12:04;6.40;99.90
56308;DHT22;42217;50.422;7.210;2023-04-24T05:14:30;6.60;99.90
56308;DHT22;42217;50.422;7.210;2023-04-24T05:16:55;6.70;99.90
56308;DHT22;42217;50.422;7.210;2023-04-24T05:19:21;6.90;99.90
56308;DHT22;42217;50.422;7.210;2023-04-24T05:21:47;6.90;99.90
56308;DHT22;42217;50.422;7.210;2023-04-24T05:24:12;6.90;99.90
56308;DHT22;42217;50.422;7.210;2023-04-24T05:26:38;7.00;99.90
56308;DHT22;42217;50.422;7.210;2023-04-24T05:29:04;7.10;99.90
56308;DHT22;42217;50.422;7.210;2023-04-24T05:31:29;7.20;99.90
56308;DHT22;42217;50.422;7.210;2023-04-24T05:33:55;7.40;99.90
56308;DHT22;42217;50.422;7.210;2023-04-24T05:36:21;7.50;99.90
56308;DHT22;42217;50.422;7.210;2023-04-24T05:38:46;7.60;99.90
56308;DHT22;42217;50.422;7.210;2023-04-24T05:41:12;7.60;99.90
56308;DHT22;42217;50.422;7.210;2023-04-24T05:43:37;7.70;99.90
56308;DHT22;42217;50.422;7.210;2023-04-24T05:46:03;7.80;99.90
56308;DHT22;42217;50.422;7.210;2023-04-24T05:48:29;7.80;99.90
56308;DHT22;42217;50.422;7.210;2023-04-24T05:50:55;7.90;99.90
56308;DHT22;42217;50.422;7.210;2023-04-24T05:53:21;7.80;99.90
56308;DHT22;42217;50.422;7.210;2023-04-24T05:55:47;7.90;99.90
56308;DHT22;42217;50.422;7.210;2023-04-24T05:58:13;8.00;99.90
56308;DHT22;42217;50.422;7.210;2023-04-24T06:00:40;8.00;99.90
56308;DHT22;42217;50.422;7.210;2023-04-24T06:03:08;8.10;99.90
56308;DHT22;42217;50.422;7.210;2023-04-24T06:05:34;8.10;99.90
56308;DHT22;42217;50.422;7.210;2023-04-24T06:08:00;8.20;99.90
56308;DHT22;42217;50.422;7.210;2023-04-24T06:10:26;8.20;99.90
56308;DHT22;42217;50.422;7.210;2023-04-24T06:12:51;8.20;99.90
56308;DHT22;42217;50.422;7.210;2023-04-24T06:15:17;8.20;99.90
56308;DHT22;42217;50.422;7.210;2023-04-24T06:17:43;8.20;99.90
56308;DHT22;42217;50.422;7.210;2023-04-24T06:20:09;8.30;99.90
56308;DHT22;42217;50.422;7.210;2023-04-24T06:22:36;8.40;99.90
56308;DHT22;42217;50.422;7.210;2023-04-24T06:25:02;8.60;99.90
56308;DHT22;42217;50.422;7.210;2023-04-24T06:27:27;8.60;99.90
56308;DHT22;42217;50.422;7.210;2023-04-24T06:29:53;8.60;99.90
56308;DHT22;42217;50.422;7.210;2023-04-24T06:32:23;8.60;99.90
56308;DHT22;42217;50.422;7.210;2023-04-24T06:34:51;8.60;99.90
56308;DHT22;42217;50.422;7.210;2023-04-24T06:37:17;8.60;99.90
56308;DHT22;42217;50.422;7.210;2023-04-24T06:39:43;8.60;99.90
56308;DHT22;42217;50.422;7.210;2023-04-24T06:42:09;8.70;99.90
56308;DHT22;42217;50.422;7.210;2023-04-24T06:44:35;8.80;99.90
56308;DHT22;42217;50.422;7.210;2023-04-24T06:47:06;8.70;99.90
56308;DHT22;42217;50.422;7.210;2023-04-24T06:49:33;8.90;99.90
56308;DHT22;42217;50.422;7.210;2023-04-24T06:51:58;9.00;99.90
56308;DHT22;42217;50.422;7.210;2023-04-24T06:54:27;9.20;99.90
56308;DHT22;42217;50.422;7.210;2023-04-24T06:56:52;9.40;99.90
56308;DHT22;42217;50.422;7.210;2023-04-24T06:59:18;9.40;99.90
56308;DHT22;42217;50.422;7.210;2023-04-24T07:01:44;9.60;99.90
56308;DHT22;42217;50.422;7.210;2023-04-24T07:04:10;9.60;99.90
56308;DHT22;42217;50.422;7.210;2023-04-24T07:06:37;9.60;99.90
56308;DHT22;42217;50.422;7.210;2023-04-24T07:09:03;9.50;99.90
56308;DHT22;42217;50.422;7.210;2023-04-24T07:11:28;9.50;99.90
56308;DHT22;42217;50.422;7.210;2023-04-24T07:13:55;9.50;99.90
56308;DHT22;42217;50.422;7.210;2023-04-24T07:16:21;9.60;99.90
56308;DHT22;42217;50.422;7.210;2023-04-24T07:18:47;9.70;99.90
56308;DHT22;42217;50.422;7.210;2023-04-24T07:21:12;9.70;99.90
56308;DHT22;42217;50.422;7.210;2023-04-24T07:23:38;9.60;99.90
56308;DHT22;42217;50.422;7.210;2023-04-24T07:26:04;9.60;99.90
56308;DHT22;42217;50.422;7.210;2023-04-24T07:28:30;9.90;99.90
56308;DHT22;42217;50.422;7.210;2023-04-24T07:30:59;10.00;99.90
56308;DHT22;42217;50.422;7.210;2023-04-24T07:33:26;9.90;99.90
56308;DHT22;42217;50.422;7.210;2023-04-24T07:35:52;9.90;99.90
56308;DHT22;42217;50.422;7.210;2023-04-24T07:38:18;9.90;99.90
56308;DHT22;42217;50.422;7.210;2023-04-24T07:40:47;9.90;99.90
56308;DHT22;42217;50.422;7.210;2023-04-24T07:43:12;9.80;99.90
56308;DHT22;42217;50.422;7.210;2023-04-24T07:45:38;9.70;99.90
56308;DHT22;42217;50.422;7.210;2023-04-24T07:48:05;9.70;99.90
56308;DHT22;42217;50.422;7.210;2023-04-24T07:50:31;9.80;99.90
56308;DHT22;42217;50.422;7.210;2023-04-24T07:52:57;10.00;99.90
56308;DHT22;42217;50.422;7.210;2023-04-24T07:55:23;10.10;99.90
56308;DHT22;42217;50.422;7.210;2023-04-24T07:57:48;10.20;99.90
56308;DHT22;42217;50.422;7.210;2023-04-24T08:00:15;10.20;99.90
56308;DHT22;42217;50.422;7.210;2023-04-24T08:02:41;10.20;99.90
56308;DHT22;42217;50.422;7.210;2023-04-24T08:05:07;10.30;99.90
56308;DHT22;42217;50.422;7.210;2023-04-24T08:07:33;10.50;99.90
56308;DHT22;42217;50.422;7.210;2023-04-24T08:09:58;10.40;99.90
56308;DHT22;42217;50.422;7.210;2023-04-24T08:12:25;10.20;99.90
56308;DHT22;42217;50.422;7.210;2023-04-24T08:14:51;10.10;99.90
56308;DHT22;42217;50.422;7.210;2023-04-24T08:17:17;9.90;99.90
56308;DHT22;42217;50.422;7.210;2023-04-24T08:19:43;9.70;99.90
56308;DHT22;42217;50.422;7.210;2023-04-24T08:22:13;9.60;99.90
56308;DHT22;42217;50.422;7.210;2023-04-24T08:24:39;9.70;99.90
56308;DHT22;42217;50.422;7.210;2023-04-24T08:27:04;9.60;99.90
56308;DHT22;42217;50.422;7.210;2023-04-24T08:29:30;9.60;99.90
56308;DHT22;42217;50.422;7.210;2023-04-24T08:31:56;9.70;99.90
56308;DHT22;42217;50.422;7.210;2023-04-24T08:34:22;9.60;99.90
56308;DHT22;42217;50.422;7.210;2023-04-24T08:36:48;9.50;99.90
56308;DHT22;42217;50.422;7.210;2023-04-24T08:39:14;9.50;99.90
56308;DHT22;42217;50.422;7.210;2023-04-24T08:41:42;9.50;99.90
56308;DHT22;42217;50.422;7.210;2023-04-24T08:44:11;9.50;99.90
56308;DHT22;42217;50.422;7.210;2023-04-24T08:46:39;9.50;99.90
56308;DHT22;42217;50.422;7.210;2023-04-24T08:49:06;9.70;99.90
56308;DHT22;42217;50.422;7.210;2023-04-24T08:51:31;9.90;99.90
56308;DHT22;42217;50.422;7.210;2023-04-24T08:53:57;10.10;99.90
56308;DHT22;42217;50.422;7.210;2023-04-24T08:56:23;10.30;99.90
56308;DHT22;42217;50.422;7.210;2023-04-24T08:58:53;10.40;99.90
56308;DHT22;42217;50.422;7.210;2023-04-24T09:01:20;10.10;99.90
56308;DHT22;42217;50.422;7.210;2023-04-24T09:03:48;9.70;99.90
56308;DHT22;42217;50.422;7.210;2023-04-24T09:06:16;9.40;99.90
56308;DHT22;42217;50.422;7.210;2023-04-24T09:08:43;9.20;99.90
56308;DHT22;42217;50.422;7.210;2023-04-24T09:11:11;9.00;99.90
56308;DHT22;42217;50.422;7.210;2023-04-24T09:13:37;8.90;99.90
56308;DHT22;42217;50.422;7.210;2023-04-24T09:16:04;8.90;99.90
56308;DHT22;42217;50.422;7.210;2023-04-24T09:18:29;9.00;99.90
56308;DHT22;42217;50.422;7.210;2023-04-24T09:21:02;9.00;99.90
56308;DHT22;42217;50.422;7.210;2023-04-24T09:23:30;9.40;99.90
56308;DHT22;42217;50.422;7.210;2023-04-24T09:25:57;9.70;99.90
56308;DHT22;42217;50.422;7.210;2023-04-24T09:28:32;10.00;99.90
56308;DHT22;42217;50.422;7.210;2023-04-24T09:31:17;10.00;99.90
56308;DHT22;42217;50.422;7.210;2023-04-24T09:34:02;10.20;99.90
56308;DHT22;42217;50.422;7.210;2023-04-24T09:36:39;10.30;99.90
56308;DHT22;42217;50.422;7.210;2023-04-24T09:39:10;10.60;99.90
56308;DHT22;42217;50.422;7.210;2023-04-24T09:41:57;11.10;99.90
56308;DHT22;42217;50.422;7.210;2023-04-24T09:44:24;11.20;99.30
56308;DHT22;42217;50.422;7.210;2023-04-24T09:47:00;10.80;97.60
56308;DHT22;42217;50.422;7.210;2023-04-24T09:49:30;10.40;99.90
56308;DHT22;42217;50.422;7.210;2023-04-24T09:52:11;10.30;99.90
56308;DHT22;42217;50.422;7.210;2023-04-24T09:54:38;10.40;99.90
56308;DHT22;42217;50.422;7.210;2023-04-24T09:57:04;10.60;99.90
56308;DHT22;42217;50.422;7.210;2023-04-24T09:59:30;10.50;99.90
56308;DHT22;42217;50.422;7.210;2023-04-24T10:01:56;10.60;99.90
56308;DHT22;42217;50.422;7.210;2023-04-24T10:04:27;10.90;99.90
56308;DHT22;42217;50.422;7.210;2023-04-24T10:06:56;11.10;97.80
56308;DHT22;42217;50.422;7.210;2023-04-24T10:09:24;11.30;94.90
56308;DHT22;42217;50.422;7.210;2023-04-24T10:11:52;11.20;93.90
56308;DHT22;42217;50.422;7.210;2023-04-24T10:14:23;11.00;99.90
56308;DHT22;42217;50.422;7.210;2023-04-24T10:16:52;11.00;97.70
56308;DHT22;42217;50.422;7.210;2023-04-24T10:19:18;10.90;99.90
56308;DHT22;42217;50.422;7.210;2023-04-24T10:21:44;11.00;96.20
56308;DHT22;42217;50.422;7.210;2023-04-24T10:24:19;10.70;98.60
56308;DHT22;42217;50.422;7.210;2023-04-24T10:26:47;10.40;99.90
56308;DHT22;42217;50.422;7.210;2023-04-24T10:29:18;10.20;99.90
56308;DHT22;42217;50.422;7.210;2023-04-24T10:31:44;10.20;99.90
56308;DHT22;42217;50.422;7.210;2023-04-24T10:34:15;10.30;99.90
56308;DHT22;42217;50.422;7.210;2023-04-24T10:36:47;10.80;98.30
56308;DHT22;42217;50.422;7.210;2023-04-24T10:39:14;10.90;99.40
56308;DHT22;42217;50.422;7.210;2023-04-24T10:41:43;10.80;99.90
56308;DHT22;42217;50.422;7.210;2023-04-24T10:44:10;10.90;99.90
56308;DHT22;42217;50.422;7.210;2023-04-24T10:46:37;10.70;99.20
56308;DHT22;42217;50.422;7.210;2023-04-24T10:49:07;10.30;99.90
56308;DHT22;42217;50.422;7.210;2023-04-24T10:59:49;9.60;99.90
56308;DHT22;42217;50.422;7.210;2023-04-24T11:02:16;9.60;99.90
56308;DHT22;42217;50.422;7.210;2023-04-24T11:04:43;9.70;99.90
56308;DHT22;42217;50.422;7.210;2023-04-24T11:07:09;9.60;99.90
56308;DHT22;42217;50.422;7.210;2023-04-24T11:09:35;9.60;99.90
56308;DHT22;42217;50.422;7.210;2023-04-24T11:12:06;9.50;99.90
56308;DHT22;42217;50.422;7.210;2023-04-24T11:17:38;9.30;99.90
56308;DHT22;42217;50.422;7.210;2023-04-24T11:20:10;8.90;99.90
56308;DHT22;42217;50.422;7.210;2023-04-24T11:22:38;8.80;99.90
56308;DHT22;42217;50.422;7.210;2023-04-24T11:25:06;8.70;99.90
56308;DHT22;42217;50.422;7.210;2023-04-24T11:27:43;8.70;99.90
56308;DHT22;42217;50.422;7.210;2023-04-24T11:30:10;8.80;99.90
56308;DHT22;42217;50.422;7.210;2023-04-24T11:35:04;8.70;99.90
56308;DHT22;42217;50.422;7.210;2023-04-24T11:40:05;9.20;99.90
56308;DHT22;42217;50.422;7.210;2023-04-24T11:42:40;9.60;99.90
56308;DHT22;42217;50.422;7.210;2023-04-24T11:45:11;10.00;99.90
56308;DHT22;42217;50.422;7.210;2023-04-24T11:47:38;10.70;99.90
56308;DHT22;42217;50.422;7.210;2023-04-24T11:50:07;11.10;99.00
56308;DHT22;42217;50.422;7.210;2023-04-24T11:52:37;10.80;99.90
56308;DHT22;42217;50.422;7.210;2023-04-24T11:55:03;10.50;99.90
56308;DHT22;42217;50.422;7.210;2023-04-24T11:57:29;10.20;99.90
56308;DHT22;42217;50.422;7.210;2023-04-24T12:00:00;9.80;99.90
56308;DHT22;42217;50.422;7.210;2023-04-24T12:02:27;9.50;99.90
56308;DHT22;42217;50.422;7.210;2023-04-24T12:04:53;9.30;99.90
56308;DHT22;42217;50.422;7.210;2023-04-24T12:07:19;9.10;99.90
56308;DHT22;42217;50.422;7.210;2023-04-24T12:09:46;9.00;99.90
56308;DHT22;42217;50.422;7.210;2023-04-24T12:12:14;9.10;99.90
56308;DHT22;42217;50.422;7.210;2023-04-24T12:14:50;9.20;99.90
56308;DHT22;42217;50.422;7.210;2023-04-24T12:17:17;9.30;99.90
56308;DHT22;42217;50.422;7.210;2023-04-24T12:19:46;9.50;99.90
56308;DHT22;42217;50.422;7.210;2023-04-24T12:22:13;9.90;99.90
56308;DHT22;42217;50.422;7.210;2023-04-24T12:24:58;10.20;99.90
56308;DHT22;42217;50.422;7.210;2023-04-24T12:27:25;10.60;99.90
56308;DHT22;42217;50.422;7.210;2023-04-24T12:29:58;11.20;99.90
56308;DHT22;42217;50.422;7.210;2023-04-24T12:32:24;11.90;90.90
56308;DHT22;42217;50.422;7.210;2023-04-24T12:34:51;12.50;67.10
56308;DHT22;42217;50.422;7.210;2023-04-24T12:37:17;12.80;40.40
56308;DHT22;42217;50.422;7.210;2023-04-24T12:40:05;13.00;34.50
56308;DHT22;42217;50.422;7.210;2023-04-24T12:42:32;13.00;37.30
56308;DHT22;42217;50.422;7.210;2023-04-24T12:45:04;12.40;18.10
56308;DHT22;42217;50.422;7.210;2023-04-24T12:47:31;12.00;30.00
56308;DHT22;42217;50.422;7.210;2023-04-24T12:49:57;11.50;52.30
56308;DHT22;42217;50.422;7.210;2023-04-24T12:52:24;11.30;53.50
56308;DHT22;42217;50.422;7.210;2023-04-24T12:54:53;11.00;71.60
56308;DHT22;42217;50.422;7.210;2023-04-24T12:57:19;10.80;77.80
56308;DHT22;42217;50.422;7.210;2023-04-24T12:59:45;10.90;65.90
56308;DHT22;42217;50.422;7.210;2023-04-24T13:02:11;11.00;31.70
56308;DHT22;42217;50.422;7.210;2023-04-24T13:04:37;11.20;20.60
56308;DHT22;42217;50.422;7.210;2023-04-24T13:07:02;11.00;20.30
56308;DHT22;42217;50.422;7.210;2023-04-24T13:09:28;10.80;52.90
56308;DHT22;42217;50.422;7.210;2023-04-24T13:11:54;11.10;46.20
56308;DHT22;42217;50.422;7.210;2023-04-24T13:14:20;11.60;17.80
56308;DHT22;42217;50.422;7.210;2023-04-24T13:16:46;12.20;4.70
56308;DHT22;42217;50.422;7.210;2023-04-24T13:19:11;12.90;4.80
56308;DHT22;42217;50.422;7.210;2023-04-24T13:21:37;13.60;1.00
56308;DHT22;42217;50.422;7.210;2023-04-24T13:24:03;14.10;1.00
56308;DHT22;42217;50.422;7.210;2023-04-24T13:26:30;13.90;1.00
56308;DHT22;42217;50.422;7.210;2023-04-24T13:28:56;13.50;1.00
56308;DHT22;42217;50.422;7.210;2023-04-24T13:31:21;13.50;1.00
56308;DHT22;42217;50.422;7.210;2023-04-24T13:33:48;13.10;1.00
56308;DHT22;42217;50.422;7.210;2023-04-24T13:36:13;12.80;1.00
56308;DHT22;42217;50.422;7.210;2023-04-24T13:38:39;12.80;1.00
56308;DHT22;42217;50.422;7.210;2023-04-24T13:41:05;13.20;1.00
56308;DHT22;42217;50.422;7.210;2023-04-24T13:43:30;13.20;1.00
56308;DHT22;42217;50.422;7.210;2023-04-24T13:45:56;13.10;1.00
56308;DHT22;42217;50.422;7.210;2023-04-24T13:48:22;13.90;1.00
56308;DHT22;42217;50.422;7.210;2023-04-24T13:50:47;13.80;1.00
56308;DHT22;42217;50.422;7.210;2023-04-24T13:53:15;13.50;1.00
56308;DHT22;42217;50.422;7.210;2023-04-24T13:55:40;12.90;1.00
56308;DHT22;42217;50.422;7.210;2023-04-24T13:58:07;12.50;1.00
56308;DHT22;42217;50.422;7.210;2023-04-24T14:00:33;12.30;1.00
56308;DHT22;42217;50.422;7.210;2023-04-24T14:02:58;12.30;1.00
56308;DHT22;42217;50.422;7.210;2023-04-24T14:05:24;12.40;1.00
56308;DHT22;42217;50.422;7.210;2023-04-24T14:07:51;12.50;1.00
56308;DHT22;42217;50.422;7.210;2023-04-24T14:10:16;12.80;1.00
56308;DHT22;42217;50.422;7.210;2023-04-24T14:12:42;13.10;1.00
56308;DHT22;42217;50.422;7.210;2023-04-24T14:15:08;13.20;1.00
56308;DHT22;42217;50.422;7.210;2023-04-24T14:17:34;13.50;1.00
56308;DHT22;42217;50.422;7.210;2023-04-24T14:20:00;14.10;1.00
56308;DHT22;42217;50.422;7.210;2023-04-24T14:22:26;14.40;1.00
56308;DHT22;42217;50.422;7.210;2023-04-24T14:24:51;14.70;99.90
56308;DHT22;42217;50.422;7.210;2023-04-24T14:27:17;14.60;99.90
56308;DHT22;42217;50.422;7.210;2023-04-24T14:29:43;14.30;99.90
56308;DHT22;42217;50.422;7.210;2023-04-24T14:32:10;14.10;99.90
56308;DHT22;42217;50.422;7.210;2023-04-24T14:34:36;13.70;99.90
56308;DHT22;42217;50.422;7.210;2023-04-24T14:37:02;13.20;99.90
56308;DHT22;42217;50.422;7.210;2023-04-24T14:39:28;12.90;1.00
56308;DHT22;42217;50.422;7.210;2023-04-24T14:41:54;12.60;1.00
56308;DHT22;42217;50.422;7.210;2023-04-24T14:44:20;12.60;1.00
56308;DHT22;42217;50.422;7.210;2023-04-24T14:46:46;12.50;1.00
56308;DHT22;42217;50.422;7.210;2023-04-24T14:49:12;12.20;1.00
56308;DHT22;42217;50.422;7.210;2023-04-24T14:51:38;11.90;17.70
56308;DHT22;42217;50.422;7.210;2023-04-24T14:54:04;10.90;61.50
56308;DHT22;42217;50.422;7.210;2023-04-24T14:56:29;10.20;96.10
56308;DHT22;42217;50.422;7.210;2023-04-24T14:58:55;10.30;99.90
56308;DHT22;42217;50.422;7.210;2023-04-24T15:01:21;11.80;99.90
56308;DHT22;42217;50.422;7.210;2023-04-24T15:03:47;13.10;77.70
56308;DHT22;42217;50.422;7.210;2023-04-24T15:06:12;13.90;23.40
56308;DHT22;42217;50.422;7.210;2023-04-24T15:08:38;13.40;1.00
56308;DHT22;42217;50.422;7.210;2023-04-24T15:11:04;13.20;1.00
56308;DHT22;42217;50.422;7.210;2023-04-24T15:13:30;14.40;1.00
56308;DHT22;42217;50.422;7.210;2023-04-24T15:15:56;16.00;1.00
56308;DHT22;42217;50.422;7.210;2023-04-24T15:18:22;16.70;99.90
56308;DHT22;42217;50.422;7.210;2023-04-24T15:20:47;16.30;37.50
56308;DHT22;42217;50.422;7.210;2023-04-24T15:23:13;16.30;99.90
56308;DHT22;42217;50.422;7.210;2023-04-24T15:25:39;16.50;1.00
56308;DHT22;42217;50.422;7.210;2023-04-24T15:28:05;16.50;1.00
56308;DHT22;42217;50.422;7.210;2023-04-24T15:30:31;17.10;1.00
56308;DHT22;42217;50.422;7.210;2023-04-24T15:32:57;18.00;1.00
56308;DHT22;42217;50.422;7.210;2023-04-24T15:35:22;19.00;1.00
56308;DHT22;42217;50.422;7.210;2023-04-24T15:37:48;18.70;1.00
56308;DHT22;42217;50.422;7.210;2023-04-24T15:40:14;17.90;1.00
56308;DHT22;42217;50.422;7.210;2023-04-24T15:42:41;18.00;99.90
56308;DHT22;42217;50.422;7.210;2023-04-24T15:45:08;17.70;99.90
56308;DHT22;42217;50.422;7.210;2023-04-24T15:47:34;17.40;1.00
56308;DHT22;42217;50.422;7.210;2023-04-24T15:50:01;17.20;1.00
56308;DHT22;42217;50.422;7.210;2023-04-24T15:52:27;16.80;99.90
56308;DHT22;42217;50.422;7.210;2023-04-24T15:54:53;15.80;99.90